sensor_id;sensor_type;location;lat;lon;timestamp;pressure;altitude;pressure_sealevel;temperature;humidity
49945;BME280;35838;49.134;9.212;2022-09-09T00:01:35;99445.78;;;17.58;67.24
49945;BME280;35838;49.134;9.212;2022-09-09T00:03:14;99447.59;;;17.56;67.28
49945;BME280;35838;49.134;9.212;2022-09-09T00:04:58;99451.19;;;17.53;67.07
49945;BME280;35838;49.134;9.212;2022-09-09T00:06:43;99445.63;;;17.61;65.90
49945;BME280;35838;49.134;9.212;2022-09-09T00:08:20;99446.53;;;17.60;66.66
49945;BME280;35838;49.134;9.212;2022-09-09T00:10:03;99446.88;;;17.52;66.86
49945;BME280;35838;49.134;9.212;2022-09-09T00:11:43;99444.28;;;17.50;67.02
49945;BME280;35838;49.134;9.212;2022-09-09T00:13:22;99445.03;;;17.54;65.70
49945;BME280;35838;49.134;9.212;2022-09-09T00:14:59;99445.78;;;17.58;65.32
49945;BME280;35838;49.134;9.212;2022-09-09T00:16:40;99438.81;;;17.57;66.79
49945;BME280;35838;49.134;9.212;2022-09-09T00:18:17;99439.56;;;17.59;66.76
49945;BME280;35838;49.134;9.212;2022-09-09T00:20:00;99434.09;;;17.65;64.90
49945;BME280;35838;49.134;9.212;2022-09-09T00:21:37;99428.66;;;17.69;64.16
49945;BME280;35838;49.134;9.212;2022-09-09T00:23:12;99427.41;;;17.78;63.27
49945;BME280;35838;49.134;9.212;2022-09-09T00:24:47;99422.06;;;17.81;62.99
49945;BME280;35838;49.134;9.212;2022-09-09T00:26:31;99422.69;;;17.86;63.18
49945;BME280;35838;49.134;9.212;2022-09-09T00:28:13;99422.69;;;17.86;62.85
49945;BME280;35838;49.134;9.212;2022-09-09T00:29:53;99419.59;;;17.99;61.64
49945;BME280;35838;49.134;9.212;2022-09-09T00:31:30;99419.47;;;18.02;61.94
49945;BME280;35838;49.134;9.212;2022-09-09T00:33:11;99422.09;;;18.02;62.68
49945;BME280;35838;49.134;9.212;2022-09-09T00:34:48;99423.03;;;18.01;61.82
49945;BME280;35838;49.134;9.212;2022-09-09T00:36:23;99426.22;;;18.08;60.56
49945;BME280;35838;49.134;9.212;2022-09-09T00:38:09;99422.56;;;18.12;60.62
49945;BME280;35838;49.134;9.212;2022-09-09T00:39:45;99426.69;;;18.17;60.28
49945;BME280;35838;49.134;9.212;2022-09-09T00:41:29;99419.47;;;18.23;60.08
49945;BME280;35838;49.134;9.212;2022-09-09T00:45:18;99430.34;;;18.13;58.75
49945;BME280;35838;49.134;9.212;2022-09-09T00:47:03;99423.78;;;18.24;59.21
49945;BME280;35838;49.134;9.212;2022-09-09T00:48:45;99428.22;;;18.23;58.45
49945;BME280;35838;49.134;9.212;2022-09-09T00:50:35;99421.56;;;18.14;59.00
49945;BME280;35838;49.134;9.212;2022-09-09T00:52:23;99430.03;;;18.21;59.17
49945;BME280;35838;49.134;9.212;2022-09-09T00:54:17;99425.63;;;18.22;58.98
49945;BME280;35838;49.134;9.212;2022-09-09T00:56:03;99426.22;;;18.28;58.57
49945;BME280;35838;49.134;9.212;2022-09-09T00:57:42;99425.94;;;18.35;58.18
49945;BME280;35838;49.134;9.212;2022-09-09T00:59:24;99427.66;;;18.36;58.06
49945;BME280;35838;49.134;9.212;2022-09-09T01:01:04;99440.78;;;18.36;58.15
49945;BME280;35838;49.134;9.212;2022-09-09T01:02:49;99436.91;;;18.44;57.80
49945;BME280;35838;49.134;9.212;2022-09-09T01:04:32;99442.03;;;18.47;57.63
49945;BME280;35838;49.134;9.212;2022-09-09T01:06:14;99436.09;;;18.23;57.78
49945;BME280;35838;49.134;9.212;2022-09-09T01:07:49;99437.44;;;18.32;57.87
49945;BME280;35838;49.134;9.212;2022-09-09T01:09:28;99437.25;;;18.37;57.89
49945;BME280;35838;49.134;9.212;2022-09-09T01:11:04;99449.53;;;18.36;57.64
49945;BME280;35838;49.134;9.212;2022-09-09T01:12:41;99459.34;;;18.32;58.13
49945;BME280;35838;49.134;9.212;2022-09-09T01:14:27;99449.47;;;18.38;57.64
49945;BME280;35838;49.134;9.212;2022-09-09T01:16:08;99442.69;;;18.32;57.77
49945;BME280;35838;49.134;9.212;2022-09-09T01:17:53;99440.22;;;18.29;58.29
49945;BME280;35838;49.134;9.212;2022-09-09T01:19:39;99439.16;;;18.33;58.36
49945;BME280;35838;49.134;9.212;2022-09-09T01:21:23;99438.31;;;18.32;57.98
49945;BME280;35838;49.134;9.212;2022-09-09T01:23:20;99435.63;;;18.34;58.03
49945;BME280;35838;49.134;9.212;2022-09-09T01:25:18;99434.53;;;18.38;57.78
49945;BME280;35838;49.134;9.212;2022-09-09T01:26:59;99440.47;;;18.43;58.18
49945;BME280;35838;49.134;9.212;2022-09-09T01:28:35;99428.13;;;18.45;57.97
49945;BME280;35838;49.134;9.212;2022-09-09T01:30:10;99444.84;;;18.43;58.35
49945;BME280;35838;49.134;9.212;2022-09-09T01:31:53;99436.06;;;18.44;57.72
49945;BME280;35838;49.134;9.212;2022-09-09T01:33:28;99438.63;;;18.45;57.58
49945;BME280;35838;49.134;9.212;2022-09-09T01:34:59;99432.91;;;18.36;57.58
49945;BME280;35838;49.134;9.212;2022-09-09T01:36:39;99429.84;;;18.26;58.73
49945;BME280;35838;49.134;9.212;2022-09-09T01:38:16;99433.31;;;18.26;58.87
49945;BME280;35838;49.134;9.212;2022-09-09T01:39:51;99432.75;;;18.20;58.41
49945;BME280;35838;49.134;9.212;2022-09-09T01:41:25;99430.75;;;18.25;58.34
49945;BME280;35838;49.134;9.212;2022-09-09T01:43:02;99439.47;;;18.25;58.53
49945;BME280;35838;49.134;9.212;2022-09-09T01:44:38;99440.28;;;18.07;58.69
49945;BME280;35838;49.134;9.212;2022-09-09T01:46:13;99439.81;;;18.17;58.52
49945;BME280;35838;49.134;9.212;2022-09-09T01:47:45;99449.94;;;18.06;58.86
49945;BME280;35838;49.134;9.212;2022-09-09T01:49:20;99444.88;;;18.01;58.81
49945;BME280;35838;49.134;9.212;2022-09-09T01:50:54;99453.28;;;18.10;58.94
49945;BME280;35838;49.134;9.212;2022-09-09T01:52:25;99446.06;;;18.15;58.98
49945;BME280;35838;49.134;9.212;2022-09-09T01:53:59;99452.16;;;18.15;58.65
49945;BME280;35838;49.134;9.212;2022-09-09T01:55:38;99454.00;;;18.13;58.57
49945;BME280;35838;49.134;9.212;2022-09-09T01:57:17;99446.63;;;18.22;58.72
49945;BME280;35838;49.134;9.212;2022-09-09T01:59:04;99448.22;;;18.26;58.71
49945;BME280;35838;49.134;9.212;2022-09-09T02:00:44;99435.03;;;18.27;58.62
49945;BME280;35838;49.134;9.212;2022-09-09T02:02:26;99436.72;;;18.28;58.51
49945;BME280;35838;49.134;9.212;2022-09-09T02:04:10;99437.53;;;18.30;58.46
49945;BME280;35838;49.134;9.212;2022-09-09T02:05:50;99439.44;;;18.27;58.61
49945;BME280;35838;49.134;9.212;2022-09-09T02:07:38;99434.03;;;18.30;58.67
49945;BME280;35838;49.134;9.212;2022-09-09T02:09:13;99441.25;;;18.25;58.79
49945;BME280;35838;49.134;9.212;2022-09-09T02:10:56;99441.00;;;18.31;58.62
49945;BME280;35838;49.134;9.212;2022-09-09T02:12:32;99437.59;;;18.29;58.46
49945;BME280;35838;49.134;9.212;2022-09-09T02:14:11;99448.50;;;18.20;58.63
49945;BME280;35838;49.134;9.212;2022-09-09T02:15:52;99438.59;;;18.06;58.88
49945;BME280;35838;49.134;9.212;2022-09-09T02:17:30;99451.09;;;17.99;59.05
49945;BME280;35838;49.134;9.212;2022-09-09T02:19:09;99446.31;;;18.09;59.08
49945;BME280;35838;49.134;9.212;2022-09-09T02:20:44;99445.19;;;18.14;59.01
49945;BME280;35838;49.134;9.212;2022-09-09T02:22:22;99440.63;;;18.20;59.00
49945;BME280;35838;49.134;9.212;2022-09-09T02:23:59;99439.56;;;18.24;59.05
49945;BME280;35838;49.134;9.212;2022-09-09T02:25:36;99436.66;;;18.30;59.32
49945;BME280;35838;49.134;9.212;2022-09-09T02:27:11;99445.41;;;18.30;59.95
49945;BME280;35838;49.134;9.212;2022-09-09T02:28:48;99436.59;;;18.31;60.01
49945;BME280;35838;49.134;9.212;2022-09-09T02:30:28;99422.81;;;18.26;60.49
49945;BME280;35838;49.134;9.212;2022-09-09T02:32:06;99418.94;;;18.14;62.31
49945;BME280;35838;49.134;9.212;2022-09-09T02:33:42;99415.72;;;18.08;61.93
49945;BME280;35838;49.134;9.212;2022-09-09T02:35:21;99412.25;;;18.07;63.97
49945;BME280;35838;49.134;9.212;2022-09-09T02:36:59;99423.75;;;17.82;65.10
49945;BME280;35838;49.134;9.212;2022-09-09T02:38:40;99426.25;;;17.85;65.07
49945;BME280;35838;49.134;9.212;2022-09-09T02:40:16;99430.34;;;17.93;67.70
49945;BME280;35838;49.134;9.212;2022-09-09T02:41:52;99447.84;;;17.92;68.23
49945;BME280;35838;49.134;9.212;2022-09-09T02:43:31;99444.50;;;17.89;68.00
49945;BME280;35838;49.134;9.212;2022-09-09T02:45:03;99452.31;;;17.90;67.36
49945;BME280;35838;49.134;9.212;2022-09-09T02:46:53;99453.16;;;17.91;65.07
49945;BME280;35838;49.134;9.212;2022-09-09T02:48:37;99445.19;;;17.94;65.19
49945;BME280;35838;49.134;9.212;2022-09-09T02:50:21;99444.38;;;17.92;65.39
49945;BME280;35838;49.134;9.212;2022-09-09T02:52:01;99439.16;;;17.90;64.88
49945;BME280;35838;49.134;9.212;2022-09-09T02:53:39;99437.41;;;17.91;65.18
49945;BME280;35838;49.134;9.212;2022-09-09T02:55:22;99433.00;;;17.91;65.41
49945;BME280;35838;49.134;9.212;2022-09-09T02:56:59;99429.53;;;17.91;66.26
49945;BME280;35838;49.134;9.212;2022-09-09T02:58:36;99428.47;;;17.95;65.38
49945;BME280;35838;49.134;9.212;2022-09-09T03:00:11;99429.22;;;17.98;65.36
49945;BME280;35838;49.134;9.212;2022-09-09T03:01:48;99431.94;;;17.97;66.18
49945;BME280;35838;49.134;9.212;2022-09-09T03:03:20;99431.19;;;17.93;66.44
49945;BME280;35838;49.134;9.212;2022-09-09T03:04:54;99436.34;;;17.96;65.73
49945;BME280;35838;49.134;9.212;2022-09-09T03:06:26;99430.09;;;17.99;65.06
49945;BME280;35838;49.134;9.212;2022-09-09T03:08:00;99438.06;;;17.97;65.07
49945;BME280;35838;49.134;9.212;2022-09-09T03:09:31;99434.69;;;17.94;65.25
49945;BME280;35838;49.134;9.212;2022-09-09T03:11:07;99432.81;;;17.97;65.32
49945;BME280;35838;49.134;9.212;2022-09-09T03:12:41;99429.34;;;17.95;65.13
49945;BME280;35838;49.134;9.212;2022-09-09T03:14:12;99420.53;;;17.98;65.15
49945;BME280;35838;49.134;9.212;2022-09-09T03:15:47;99420.25;;;18.04;65.94
49945;BME280;35838;49.134;9.212;2022-09-09T03:17:25;99413.47;;;17.98;65.61
49945;BME280;35838;49.134;9.212;2022-09-09T03:18:59;99428.31;;;17.99;65.56
49945;BME280;35838;49.134;9.212;2022-09-09T03:20:33;99415.34;;;17.95;65.83
49945;BME280;35838;49.134;9.212;2022-09-09T03:22:04;99420.72;;;17.71;66.36
49945;BME280;35838;49.134;9.212;2022-09-09T03:23:38;99421.72;;;17.68;66.43
49945;BME280;35838;49.134;9.212;2022-09-09T03:25:12;99423.94;;;17.78;65.98
49945;BME280;35838;49.134;9.212;2022-09-09T03:26:44;99429.25;;;17.76;66.19
49945;BME280;35838;49.134;9.212;2022-09-09T09:29:50;99505.38;;;20.48;54.73
49945;BME280;35838;49.134;9.212;2022-09-09T09:31:25;99508.09;;;20.47;53.65
49945;BME280;35838;49.134;9.212;2022-09-09T09:33:02;99507.19;;;20.48;53.71
49945;BME280;35838;49.134;9.212;2022-09-09T09:34:36;99498.25;;;20.50;54.24
49945;BME280;35838;49.134;9.212;2022-09-09T09:36:10;99499.63;;;20.58;55.08
49945;BME280;35838;49.134;9.212;2022-09-09T09:37:46;99491.50;;;20.62;54.13
49945;BME280;35838;49.134;9.212;2022-09-09T09:39:24;99497.16;;;20.55;54.00
49945;BME280;35838;49.134;9.212;2022-09-09T09:40:59;99507.47;;;20.42;54.65
49945;BME280;35838;49.134;9.212;2022-09-09T09:42:33;99521.53;;;20.42;57.52
49945;BME280;35838;49.134;9.212;2022-09-09T09:44:23;99518.25;;;20.37;59.42
49945;BME280;35838;49.134;9.212;2022-09-09T09:46:00;99516.06;;;20.28;63.51
49945;BME280;35838;49.134;9.212;2022-09-09T09:47:36;99521.34;;;20.10;65.23
49945;BME280;35838;49.134;9.212;2022-09-09T09:49:12;99518.78;;;19.91;65.09
49945;BME280;35838;49.134;9.212;2022-09-09T09:50:48;99522.75;;;19.81;65.71
49945;BME280;35838;49.134;9.212;2022-09-09T09:52:24;99520.47;;;19.55;64.93
49945;BME280;35838;49.134;9.212;2022-09-09T09:54:08;99523.56;;;19.45;65.75
49945;BME280;35838;49.134;9.212;2022-09-09T09:55:49;99523.44;;;19.48;65.69
49945;BME280;35838;49.134;9.212;2022-09-09T09:57:26;99527.28;;;19.40;67.64
49945;BME280;35838;49.134;9.212;2022-09-09T09:59:01;99515.84;;;19.41;68.00
49945;BME280;35838;49.134;9.212;2022-09-09T10:00:35;99521.44;;;19.34;67.73
49945;BME280;35838;49.134;9.212;2022-09-09T10:02:18;99528.25;;;19.19;67.81
49945;BME280;35838;49.134;9.212;2022-09-09T10:03:58;99530.56;;;19.07;67.22
49945;BME280;35838;49.134;9.212;2022-09-09T10:05:35;99520.66;;;18.92;64.72
49945;BME280;35838;49.134;9.212;2022-09-09T10:07:11;99516.63;;;19.05;64.55
49945;BME280;35838;49.134;9.212;2022-09-09T10:08:46;99522.38;;;18.94;64.80
49945;BME280;35838;49.134;9.212;2022-09-09T10:10:24;99519.88;;;19.10;65.22
49945;BME280;35838;49.134;9.212;2022-09-09T10:12:05;99517.75;;;19.19;66.21
49945;BME280;35838;49.134;9.212;2022-09-09T10:13:48;99519.41;;;19.21;69.63
49945;BME280;35838;49.134;9.212;2022-09-09T10:15:41;99518.66;;;19.18;71.78
49945;BME280;35838;49.134;9.212;2022-09-09T10:17:29;99515.53;;;19.09;73.21
49945;BME280;35838;49.134;9.212;2022-09-09T10:19:12;99508.50;;;19.29;76.15
49945;BME280;35838;49.134;9.212;2022-09-09T10:20:54;99504.22;;;19.46;74.05
49945;BME280;35838;49.134;9.212;2022-09-09T10:22:33;99504.38;;;19.62;75.71
49945;BME280;35838;49.134;9.212;2022-09-09T10:24:22;99505.53;;;19.73;74.53
49945;BME280;35838;49.134;9.212;2022-09-09T10:26:16;99499.72;;;19.86;70.91
49945;BME280;35838;49.134;9.212;2022-09-09T10:28:10;99514.91;;;19.98;70.57
49945;BME280;35838;49.134;9.212;2022-09-09T10:30:00;99508.88;;;19.77;67.53
49945;BME280;35838;49.134;9.212;2022-09-09T10:31:46;99518.84;;;19.70;62.90
49945;BME280;35838;49.134;9.212;2022-09-09T10:33:32;99515.47;;;19.68;58.76
49945;BME280;35838;49.134;9.212;2022-09-09T10:35:14;99519.16;;;19.64;59.50
49945;BME280;35838;49.134;9.212;2022-09-09T10:36:53;99514.19;;;19.58;58.33
49945;BME280;35838;49.134;9.212;2022-09-09T10:38:30;99517.38;;;19.65;59.41
49945;BME280;35838;49.134;9.212;2022-09-09T10:40:26;99520.84;;;19.65;58.68
49945;BME280;35838;49.134;9.212;2022-09-09T10:42:05;99512.44;;;19.76;58.74
49945;BME280;35838;49.134;9.212;2022-09-09T10:43:56;99514.16;;;19.77;58.51
49945;BME280;35838;49.134;9.212;2022-09-09T10:45:44;99522.44;;;19.69;58.67
49945;BME280;35838;49.134;9.212;2022-09-09T10:47:37;99513.09;;;19.62;59.06
49945;BME280;35838;49.134;9.212;2022-09-09T10:49:30;99510.34;;;19.65;58.49
49945;BME280;35838;49.134;9.212;2022-09-09T10:51:23;99517.28;;;19.85;58.92
49945;BME280;35838;49.134;9.212;2022-09-09T10:53:02;99512.81;;;20.05;58.27
49945;BME280;35838;49.134;9.212;2022-09-09T10:54:53;99509.59;;;20.35;58.15
49945;BME280;35838;49.134;9.212;2022-09-09T10:56:30;99507.94;;;20.50;58.22
49945;BME280;35838;49.134;9.212;2022-09-09T10:58:05;99501.44;;;20.75;59.46
49945;BME280;35838;49.134;9.212;2022-09-09T10:59:44;99498.81;;;20.91;58.81
49945;BME280;35838;49.134;9.212;2022-09-09T11:01:23;99502.31;;;21.07;58.71
49945;BME280;35838;49.134;9.212;2022-09-09T11:03:00;99504.03;;;21.08;58.82
49945;BME280;35838;49.134;9.212;2022-09-09T11:04:41;99501.88;;;20.83;60.14
49945;BME280;35838;49.134;9.212;2022-09-09T11:06:19;99502.81;;;20.82;61.16
49945;BME280;35838;49.134;9.212;2022-09-09T11:07:57;99501.25;;;20.78;62.19
49945;BME280;35838;49.134;9.212;2022-09-09T11:09:36;99503.75;;;20.81;63.22
49945;BME280;35838;49.134;9.212;2022-09-09T11:11:15;99511.06;;;20.76;61.20
49945;BME280;35838;49.134;9.212;2022-09-09T11:12:54;99503.25;;;20.73;61.11
49945;BME280;35838;49.134;9.212;2022-09-09T11:14:34;99502.13;;;20.61;60.82
49945;BME280;35838;49.134;9.212;2022-09-09T11:16:20;99502.81;;;20.64;59.63
49945;BME280;35838;49.134;9.212;2022-09-09T11:17:58;99498.13;;;20.70;59.50
49945;BME280;35838;49.134;9.212;2022-09-09T11:19:39;99493.19;;;20.81;59.77
49945;BME280;35838;49.134;9.212;2022-09-09T11:21:17;99492.69;;;20.90;59.78
49945;BME280;35838;49.134;9.212;2022-09-09T11:22:59;99489.44;;;20.85;57.60
49945;BME280;35838;49.134;9.212;2022-09-09T11:24:37;99489.19;;;20.90;58.35
49945;BME280;35838;49.134;9.212;2022-09-09T11:26:17;99486.81;;;20.85;57.98
49945;BME280;35838;49.134;9.212;2022-09-09T11:28:19;99491.00;;;20.89;56.87
49945;BME280;35838;49.134;9.212;2022-09-09T11:30:15;99492.22;;;21.00;55.75
49945;BME280;35838;49.134;9.212;2022-09-09T11:32:01;99483.28;;;21.18;57.73
49945;BME280;35838;49.134;9.212;2022-09-09T11:33:54;99487.38;;;21.40;55.95
49945;BME280;35838;49.134;9.212;2022-09-09T11:35:44;99489.94;;;21.41;55.56
49945;BME280;35838;49.134;9.212;2022-09-09T11:37:40;99486.53;;;21.39;53.30
49945;BME280;35838;49.134;9.212;2022-09-09T11:39:36;99489.16;;;21.23;52.84
49945;BME280;35838;49.134;9.212;2022-09-09T11:41:13;99483.63;;;20.96;52.84
49945;BME280;35838;49.134;9.212;2022-09-09T11:42:49;99482.94;;;20.92;52.09
49945;BME280;35838;49.134;9.212;2022-09-09T11:44:35;99482.94;;;20.92;51.42
49945;BME280;35838;49.134;9.212;2022-09-09T11:46:10;99482.69;;;21.13;52.44
49945;BME280;35838;49.134;9.212;2022-09-09T11:47:52;99486.00;;;21.33;52.01
49945;BME280;35838;49.134;9.212;2022-09-09T11:49:27;99487.19;;;21.27;48.55
49945;BME280;35838;49.134;9.212;2022-09-09T11:51:07;99489.25;;;21.38;48.59
49945;BME280;35838;49.134;9.212;2022-09-09T11:52:44;99494.63;;;21.52;47.50
49945;BME280;35838;49.134;9.212;2022-09-09T11:54:28;99501.56;;;21.21;46.31
49945;BME280;35838;49.134;9.212;2022-09-09T11:56:11;99492.66;;;21.08;46.25
49945;BME280;35838;49.134;9.212;2022-09-09T11:57:46;99492.16;;;21.17;46.54
49945;BME280;35838;49.134;9.212;2022-09-09T11:59:22;99478.84;;;21.19;46.23
49945;BME280;35838;49.134;9.212;2022-09-09T12:00:57;99484.16;;;21.35;46.29
49945;BME280;35838;49.134;9.212;2022-09-09T12:02:31;99482.09;;;21.40;47.00
49945;BME280;35838;49.134;9.212;2022-09-09T12:04:16;99493.75;;;21.52;46.58
49945;BME280;35838;49.134;9.212;2022-09-09T12:05:53;99498.53;;;21.45;46.10
49945;BME280;35838;49.134;9.212;2022-09-09T12:07:34;99499.97;;;21.35;46.08
49945;BME280;35838;49.134;9.212;2022-09-09T12:09:17;99492.22;;;21.32;46.50
49945;BME280;35838;49.134;9.212;2022-09-09T12:10:54;99486.88;;;21.17;46.65
49945;BME280;35838;49.134;9.212;2022-09-09T12:12:31;99483.97;;;21.22;46.79
49945;BME280;35838;49.134;9.212;2022-09-09T12:14:19;99479.59;;;20.89;46.62
49945;BME280;35838;49.134;9.212;2022-09-09T12:15:55;99483.09;;;20.72;46.51
49945;BME280;35838;49.134;9.212;2022-09-09T12:17:31;99481.56;;;20.50;47.43
49945;BME280;35838;49.134;9.212;2022-09-09T12:19:14;99473.19;;;20.59;48.20
49945;BME280;35838;49.134;9.212;2022-09-09T12:20:55;99481.97;;;20.60;48.68
49945;BME280;35838;49.134;9.212;2022-09-09T12:22:39;99474.00;;;20.44;49.99
49945;BME280;35838;49.134;9.212;2022-09-09T12:24:20;99472.91;;;20.48;50.63
49945;BME280;35838;49.134;9.212;2022-09-09T12:28:05;99472.75;;;20.51;51.62
49945;BME280;35838;49.134;9.212;2022-09-09T12:29:42;99460.50;;;20.50;51.69
49945;BME280;35838;49.134;9.212;2022-09-09T12:31:25;99464.03;;;20.66;52.59
49945;BME280;35838;49.134;9.212;2022-09-09T12:33:02;99459.84;;;20.62;51.54
49945;BME280;35838;49.134;9.212;2022-09-09T12:34:44;99451.59;;;20.53;52.25
49945;BME280;35838;49.134;9.212;2022-09-09T12:36:22;99454.28;;;20.51;50.56
49945;BME280;35838;49.134;9.212;2022-09-09T12:38:01;99459.84;;;20.80;51.20
49945;BME280;35838;49.134;9.212;2022-09-09T12:39:41;99462.81;;;20.74;51.27
49945;BME280;35838;49.134;9.212;2022-09-09T12:41:22;99463.19;;;20.66;51.81
49945;BME280;35838;49.134;9.212;2022-09-09T12:42:56;99465.88;;;20.82;51.60
49945;BME280;35838;49.134;9.212;2022-09-09T12:44:28;99458.78;;;20.66;51.14
49945;BME280;35838;49.134;9.212;2022-09-09T12:46:08;99460.34;;;20.53;50.04
49945;BME280;35838;49.134;9.212;2022-09-09T12:47:49;99465.28;;;20.59;49.08
49945;BME280;35838;49.134;9.212;2022-09-09T12:49:28;99462.53;;;20.45;48.62
49945;BME280;35838;49.134;9.212;2022-09-09T12:51:07;99459.56;;;20.51;48.78
49945;BME280;35838;49.134;9.212;2022-09-09T12:52:51;99464.72;;;20.37;48.11
49945;BME280;35838;49.134;9.212;2022-09-09T12:54:29;99460.50;;;20.50;48.33
49945;BME280;35838;49.134;9.212;2022-09-09T12:56:05;99469.22;;;20.68;49.67
49945;BME280;35838;49.134;9.212;2022-09-09T12:57:42;99462.84;;;20.72;49.41
49945;BME280;35838;49.134;9.212;2022-09-09T12:59:23;99466.59;;;21.02;49.37
49945;BME280;35838;49.134;9.212;2022-09-09T13:00:57;99457.91;;;21.32;49.39
49945;BME280;35838;49.134;9.212;2022-09-09T13:02:35;99461.31;;;21.50;50.41
49945;BME280;35838;49.134;9.212;2022-09-09T13:04:19;99453.22;;;21.69;47.88
49945;BME280;35838;49.134;9.212;2022-09-09T13:05:58;99446.66;;;21.76;46.52
49945;BME280;35838;49.134;9.212;2022-09-09T13:07:33;99442.66;;;21.99;46.47
49945;BME280;35838;49.134;9.212;2022-09-09T13:09:08;99447.69;;;22.18;46.52
49945;BME280;35838;49.134;9.212;2022-09-09T13:10:47;99438.75;;;22.21;45.84
49945;BME280;35838;49.134;9.212;2022-09-09T13:12:23;99446.88;;;22.32;45.89
49945;BME280;35838;49.134;9.212;2022-09-09T13:13:57;99457.47;;;22.02;44.85
49945;BME280;35838;49.134;9.212;2022-09-09T13:15:32;99443.06;;;22.22;45.27
49945;BME280;35838;49.134;9.212;2022-09-09T13:17:15;99442.91;;;22.11;45.21
49945;BME280;35838;49.134;9.212;2022-09-09T13:18:51;99437.88;;;22.06;45.26
49945;BME280;35838;49.134;9.212;2022-09-09T13:20:27;99424.69;;;22.20;44.37
49945;BME280;35838;49.134;9.212;2022-09-09T13:22:11;99429.91;;;22.36;43.48
49945;BME280;35838;49.134;9.212;2022-09-09T13:23:49;99433.97;;;22.71;43.96
49945;BME280;35838;49.134;9.212;2022-09-09T13:25:25;99432.47;;;22.96;43.23
49945;BME280;35838;49.134;9.212;2022-09-09T13:27:04;99422.38;;;23.15;41.70
49945;BME280;35838;49.134;9.212;2022-09-09T13:28:39;99434.13;;;23.26;41.36
49945;BME280;35838;49.134;9.212;2022-09-09T13:30:24;99430.25;;;23.03;41.44
49945;BME280;35838;49.134;9.212;2022-09-09T13:32:04;99438.41;;;22.99;42.07
49945;BME280;35838;49.134;9.212;2022-09-09T13:33:38;99439.38;;;22.69;41.74
49945;BME280;35838;49.134;9.212;2022-09-09T13:35:23;99433.16;;;22.56;41.87
49945;BME280;35838;49.134;9.212;2022-09-09T13:36:59;99428.34;;;22.77;42.23
49945;BME280;35838;49.134;9.212;2022-09-09T13:38:38;99449.66;;;22.89;41.38
49945;BME280;35838;49.134;9.212;2022-09-09T13:40:17;99432.84;;;23.04;41.20
49945;BME280;35838;49.134;9.212;2022-09-09T13:41:52;99430.41;;;22.43;40.76
49945;BME280;35838;49.134;9.212;2022-09-09T13:43:27;99433.78;;;22.45;41.13
49945;BME280;35838;49.134;9.212;2022-09-09T13:45:02;99442.97;;;22.09;41.59
49945;BME280;35838;49.134;9.212;2022-09-09T13:46:38;99433.22;;;21.95;42.58
49945;BME280;35838;49.134;9.212;2022-09-09T13:48:18;99435.28;;;21.59;42.68
49945;BME280;35838;49.134;9.212;2022-09-09T13:49:52;99430.56;;;21.65;42.68
49945;BME280;35838;49.134;9.212;2022-09-09T13:51:33;99432.75;;;21.56;43.12
49945;BME280;35838;49.134;9.212;2022-09-09T13:53:08;99427.41;;;21.74;43.14
49945;BME280;35838;49.134;9.212;2022-09-09T13:54:42;99426.13;;;21.81;42.81
49945;BME280;35838;49.134;9.212;2022-09-09T13:56:16;99426.25;;;21.94;42.65
49945;BME280;35838;49.134;9.212;2022-09-09T13:57:51;99420.44;;;22.18;42.51
49945;BME280;35838;49.134;9.212;2022-09-09T13:59:27;99425.44;;;22.08;42.92
49945;BME280;35838;49.134;9.212;2022-09-09T14:01:02;99426.69;;;21.86;43.47
49945;BME280;35838;49.134;9.212;2022-09-09T14:02:36;99432.28;;;21.66;43.43
49945;BME280;35838;49.134;9.212;2022-09-09T14:04:10;99425.66;;;21.58;44.02
49945;BME280;35838;49.134;9.212;2022-09-09T14:05:44;99431.88;;;21.41;44.68
49945;BME280;35838;49.134;9.212;2022-09-09T14:07:19;99431.00;;;21.41;45.17
49945;BME280;35838;49.134;9.212;2022-09-09T14:08:53;99436.28;;;21.41;46.17
49945;BME280;35838;49.134;9.212;2022-09-09T14:10:27;99437.06;;;21.27;46.41
49945;BME280;35838;49.134;9.212;2022-09-09T14:12:01;99424.06;;;21.24;47.48
49945;BME280;35838;49.134;9.212;2022-09-09T14:13:35;99436.13;;;21.12;47.53
49945;BME280;35838;49.134;9.212;2022-09-09T14:15:12;99437.91;;;21.11;47.46
49945;BME280;35838;49.134;9.212;2022-09-09T14:16:47;99436.63;;;21.03;48.35
49945;BME280;35838;49.134;9.212;2022-09-09T14:18:21;99436.47;;;21.06;48.21
49945;BME280;35838;49.134;9.212;2022-09-09T14:19:56;99434.41;;;21.27;48.83
49945;BME280;35838;49.134;9.212;2022-09-09T14:21:31;99439.47;;;21.16;49.67
49945;BME280;35838;49.134;9.212;2022-09-09T14:23:05;99445.16;;;21.08;51.18
49945;BME280;35838;49.134;9.212;2022-09-09T14:24:38;99434.00;;;21.19;51.14
49945;BME280;35838;49.134;9.212;2022-09-09T14:26:12;99430.97;;;21.73;52.51
49945;BME280;35838;49.134;9.212;2022-09-09T14:27:46;99435.50;;;22.01;50.76
49945;BME280;35838;49.134;9.212;2022-09-09T14:29:22;99429.13;;;22.20;50.26
49945;BME280;35838;49.134;9.212;2022-09-09T14:31:02;99423.69;;;22.37;49.66
49945;BME280;35838;49.134;9.212;2022-09-09T14:32:36;99417.34;;;22.83;50.24
49945;BME280;35838;49.134;9.212;2022-09-09T14:34:10;99417.78;;;23.19;49.58
49945;BME280;35838;49.134;9.212;2022-09-09T14:35:45;99415.19;;;23.32;48.67
49945;BME280;35838;49.134;9.212;2022-09-09T14:37:19;99420.69;;;23.56;48.20
49945;BME280;35838;49.134;9.212;2022-09-09T14:38:53;99423.75;;;23.23;46.79
49945;BME280;35838;49.134;9.212;2022-09-09T14:40:28;99420.41;;;23.34;47.44
49945;BME280;35838;49.134;9.212;2022-09-09T14:42:03;99422.94;;;23.35;46.35
49945;BME280;35838;49.134;9.212;2022-09-09T14:43:37;99424.09;;;23.58;45.42
49945;BME280;35838;49.134;9.212;2022-09-09T14:45:11;99430.63;;;23.53;44.25
49945;BME280;35838;49.134;9.212;2022-09-09T14:46:48;99439.31;;;23.55;44.28
49945;BME280;35838;49.134;9.212;2022-09-09T14:48:24;99433.38;;;23.24;44.49
49945;BME280;35838;49.134;9.212;2022-09-09T14:49:58;99428.06;;;23.24;44.86
49945;BME280;35838;49.134;9.212;2022-09-09T14:51:32;99435.44;;;23.60;45.41